createdAt,value
2022-10-08T00:00:07.018Z,6.70
2022-10-08T00:02:43.564Z,6.82
2022-10-08T00:05:17.308Z,6.60
2022-10-08T00:07:49.189Z,6.00
2022-10-08T00:10:22.041Z,7.30
2022-10-08T00:12:53.945Z,6.40
2022-10-08T00:15:27.203Z,5.80
2022-10-08T00:17:59.793Z,5.82
2022-10-08T00:20:32.559Z,6.68
2022-10-08T00:23:04.447Z,6.00
2022-10-08T00:25:45.098Z,5.90
2022-10-08T00:28:17.296Z,6.32
2022-10-08T00:30:50.068Z,6.28
2022-10-08T00:33:24.189Z,6.47
2022-10-08T00:36:01.422Z,5.90
2022-10-08T00:38:34.919Z,6.40
2022-10-08T00:41:17.943Z,5.97
2022-10-08T00:43:54.014Z,5.88
2022-10-08T00:46:34.058Z,5.88
2022-10-08T00:49:20.963Z,6.40
2022-10-08T00:51:56.220Z,6.43
2022-10-08T00:54:29.552Z,6.40
2022-10-08T00:57:02.350Z,6.30
2022-10-08T00:59:36.475Z,6.60
2022-10-08T01:02:09.583Z,5.90
2022-10-08T01:04:43.474Z,6.60
2022-10-08T01:07:55.553Z,6.32
2022-10-08T01:10:47.042Z,6.18
2022-10-08T01:13:39.969Z,6.38
2022-10-08T01:16:22.958Z,6.28
2022-10-08T01:18:54.781Z,5.93
2022-10-08T01:21:58.264Z,5.78
2022-10-08T01:25:12.357Z,6.32
2022-10-08T01:27:51.231Z,5.90
2022-10-08T01:30:24.023Z,6.35
2022-10-08T01:33:05.200Z,6.23
2022-10-08T01:35:37.777Z,5.68
2022-10-08T01:38:16.553Z,5.80
2022-10-08T01:40:52.844Z,6.03
2022-10-08T01:43:39.148Z,6.05
2022-10-08T01:46:25.427Z,5.60
2022-10-08T01:49:07.618Z,5.88
2022-10-08T01:51:49.825Z,5.95
2022-10-08T01:54:25.434Z,6.40
2022-10-08T01:57:00.675Z,5.90
2022-10-08T01:59:42.527Z,5.80
2022-10-08T02:02:23.949Z,6.68
2022-10-08T02:04:57.368Z,5.63
2022-10-08T02:07:33.736Z,5.90
2022-10-08T02:10:09.638Z,6.28
2022-10-08T02:12:44.026Z,6.40
2022-10-08T02:15:45.142Z,6.60
2022-10-08T02:18:21.711Z,6.32
2022-10-08T02:21:04.926Z,6.55
2022-10-08T02:24:20.756Z,6.13
2022-10-08T02:26:57.463Z,7.00
2022-10-08T02:29:45.367Z,6.97
2022-10-08T02:32:51.685Z,6.78
2022-10-08T02:35:33.599Z,6.13
2022-10-08T02:38:34.240Z,6.32
2022-10-08T02:41:10.090Z,6.30
2022-10-08T02:43:48.055Z,6.07
2022-10-08T02:46:25.371Z,6.53
2022-10-08T02:49:29.078Z,6.07
2022-10-08T02:52:03.303Z,5.90
2022-10-08T02:54:40.359Z,6.10
2022-10-08T02:57:18.735Z,5.30
2022-10-08T02:59:51.978Z,6.47
2022-10-08T03:02:41.895Z,6.03
2022-10-08T03:05:18.864Z,6.72
2022-10-08T03:07:51.982Z,6.13
2022-10-08T03:10:26.023Z,6.30
2022-10-08T03:13:05.118Z,6.47
2022-10-08T03:15:37.899Z,5.80
2022-10-08T03:18:12.684Z,6.75
2022-10-08T03:20:51.512Z,5.80
2022-10-08T03:23:25.118Z,6.18
2022-10-08T03:25:57.018Z,6.43
2022-10-08T03:28:29.806Z,6.50
2022-10-08T03:31:06.480Z,6.20
2022-10-08T03:33:39.248Z,6.13
2022-10-08T03:36:11.604Z,6.40
2022-10-08T03:38:43.534Z,6.50
2022-10-08T03:41:17.748Z,6.40
2022-10-08T03:43:50.064Z,6.07
2022-10-08T03:46:21.961Z,6.10
2022-10-08T03:48:54.785Z,5.63
2022-10-08T03:51:26.678Z,6.50
2022-10-08T03:53:59.450Z,6.07
2022-10-08T03:56:31.345Z,5.85
2022-10-08T03:59:04.468Z,7.13
2022-10-08T04:01:36.597Z,7.30
2022-10-08T04:04:09.375Z,6.47
2022-10-08T04:06:41.692Z,5.50
2022-10-08T04:09:13.639Z,6.20
2022-10-08T04:11:46.621Z,6.13
2022-10-08T04:14:18.531Z,6.03
2022-10-08T04:16:51.288Z,5.57
2022-10-08T04:19:23.607Z,5.35
2022-10-08T04:21:56.369Z,5.80
2022-10-08T04:24:28.315Z,5.87
2022-10-08T04:27:00.994Z,5.50
2022-10-08T04:29:32.856Z,6.15
2022-10-08T04:32:05.635Z,6.30
2022-10-08T04:34:37.912Z,5.80
2022-10-08T04:37:11.011Z,6.00
2022-10-08T04:39:42.903Z,6.13
2022-10-08T04:42:15.912Z,5.97
2022-10-08T04:44:48.285Z,5.97
2022-10-08T04:47:20.226Z,6.25
2022-10-08T04:49:53.798Z,5.90
2022-10-08T04:52:25.711Z,6.25
2022-10-08T04:54:58.418Z,6.10
2022-10-08T04:57:31.449Z,5.78
2022-10-08T05:00:18.396Z,6.13
2022-10-08T05:02:51.815Z,5.87
2022-10-08T05:05:25.024Z,6.43
2022-10-08T05:07:57.247Z,6.50
2022-10-08T05:10:29.947Z,6.25
2022-10-08T05:13:03.064Z,6.00
2022-10-08T05:15:36.341Z,6.87
2022-10-08T05:18:08.279Z,6.63
2022-10-08T05:20:41.158Z,6.53
2022-10-08T05:23:13.463Z,7.03
2022-10-08T05:25:46.168Z,7.10
2022-10-08T05:28:18.089Z,6.70
2022-10-08T05:30:51.055Z,6.82
2022-10-08T05:33:23.417Z,7.35
2022-10-08T05:35:55.774Z,7.85
2022-10-08T05:38:34.655Z,7.85
2022-10-08T05:41:22.596Z,7.37
2022-10-08T05:43:57.412Z,7.70
2022-10-08T05:46:32.873Z,7.50
2022-10-08T05:49:08.775Z,7.65
2022-10-08T05:51:40.702Z,7.20
2022-10-08T05:54:13.556Z,8.17
2022-10-08T05:56:45.783Z,8.27
2022-10-08T05:59:24.393Z,7.93
2022-10-08T06:01:57.070Z,7.55
2022-10-08T06:04:29.068Z,8.35
2022-10-08T06:07:01.780Z,8.37
2022-10-08T06:09:33.651Z,8.98
2022-10-08T06:12:06.996Z,8.25
2022-10-08T06:14:40.196Z,7.78
2022-10-08T06:17:12.891Z,8.80
2022-10-08T06:19:44.754Z,8.13
2022-10-08T06:22:19.824Z,8.40
2022-10-08T06:24:51.681Z,9.13
2022-10-08T06:27:24.448Z,7.95
2022-10-08T06:29:56.717Z,8.70
2022-10-08T06:32:29.428Z,8.90
2022-10-08T06:35:01.785Z,9.00
2022-10-08T06:37:34.050Z,9.60
2022-10-08T06:40:06.356Z,9.00
2022-10-08T06:42:39.409Z,8.63
2022-10-08T06:45:11.314Z,9.17
2022-10-08T06:47:44.122Z,9.75
2022-10-08T06:50:16.130Z,9.05
2022-10-08T06:52:49.626Z,9.10
2022-10-08T06:55:24.152Z,9.50
2022-10-08T06:57:56.031Z,9.87
2022-10-08T07:00:29.011Z,9.77
2022-10-08T07:03:01.415Z,10.32
2022-10-08T07:05:34.128Z,9.85
2022-10-08T07:08:06.107Z,10.02
2022-10-08T07:10:39.105Z,9.93
2022-10-08T07:13:11.354Z,10.07
2022-10-08T07:15:44.481Z,9.60
2022-10-08T07:18:16.797Z,10.65
2022-10-08T07:20:56.182Z,9.85
2022-10-08T07:23:29.184Z,9.43
2022-10-08T07:26:14.293Z,10.40
2022-10-08T07:28:53.244Z,10.82
2022-10-08T07:31:31.272Z,10.07
2022-10-08T07:34:07.970Z,10.50
2022-10-08T07:36:40.872Z,10.27
2022-10-08T07:39:17.210Z,10.23
2022-10-08T07:41:50.072Z,10.30
2022-10-08T07:44:23.213Z,10.70
2022-10-08T07:46:56.530Z,10.48
2022-10-08T07:49:28.530Z,9.80
2022-10-08T07:52:01.302Z,9.82
2022-10-08T07:54:33.192Z,10.60
2022-10-08T07:57:06.200Z,11.20
2022-10-08T07:59:38.295Z,10.65
2022-10-08T08:02:11.558Z,10.83
2022-10-08T08:04:43.507Z,10.98
2022-10-08T08:07:16.200Z,9.98
2022-10-08T08:09:48.564Z,10.45
2022-10-08T08:12:23.914Z,10.57
2022-10-08T08:14:56.241Z,10.63
2022-10-08T08:17:28.646Z,10.48
2022-10-08T08:20:01.867Z,10.43
2022-10-08T08:22:33.776Z,10.55
2022-10-08T08:25:06.948Z,10.35
2022-10-08T08:27:38.903Z,11.13
2022-10-08T08:30:13.488Z,10.60
2022-10-08T08:32:45.777Z,10.68
2022-10-08T08:35:18.994Z,12.18
2022-10-08T08:37:51.426Z,10.60
2022-10-08T08:40:24.209Z,11.30
2022-10-08T08:42:57.776Z,10.77
2022-10-08T08:45:49.016Z,12.35
2022-10-08T08:48:29.326Z,11.05
2022-10-08T08:51:04.144Z,11.05
2022-10-08T08:53:36.888Z,11.03
2022-10-08T08:56:13.121Z,11.20
2022-10-08T08:59:29.103Z,10.77
2022-10-08T09:02:09.816Z,9.88
2022-10-08T09:04:51.233Z,11.02
2022-10-08T09:07:28.578Z,10.90
2022-10-08T09:10:01.646Z,10.82
2022-10-08T09:12:39.972Z,10.85
2022-10-08T09:15:32.776Z,11.00
2022-10-08T09:18:05.993Z,11.35
2022-10-08T09:20:40.539Z,11.00
2022-10-08T09:23:23.269Z,10.88
2022-10-08T09:26:13.993Z,10.85
2022-10-08T09:28:49.703Z,10.02
2022-10-08T09:31:27.218Z,9.10
2022-10-08T09:34:13.499Z,9.30
2022-10-08T09:37:21.455Z,8.27
2022-10-08T09:40:23.759Z,7.65
2022-10-08T09:43:17.512Z,7.53
2022-10-08T09:48:43.579Z,5.60
2022-10-08T09:51:17.389Z,4.43
2022-10-08T09:53:55.286Z,4.90
2022-10-08T09:56:31.057Z,4.63
2022-10-08T09:59:05.583Z,6.90
2022-10-08T10:01:46.284Z,4.80
2022-10-08T10:04:40.639Z,5.05
2022-10-08T10:07:12.582Z,4.53
2022-10-08T10:09:57.699Z,4.15
2022-10-08T10:12:35.604Z,4.25
2022-10-08T10:15:39.408Z,4.50
2022-10-08T10:18:27.590Z,4.85
2022-10-08T10:21:06.491Z,3.90
2022-10-08T10:23:53.033Z,4.03
2022-10-08T10:26:31.578Z,3.95
2022-10-08T10:29:22.813Z,3.90
2022-10-08T10:32:05.107Z,3.65
2022-10-08T10:34:40.302Z,3.53
2022-10-08T10:37:27.354Z,3.85
2022-10-08T10:40:40.447Z,4.15
2022-10-08T10:43:42.910Z,3.53
2022-10-08T10:46:37.193Z,3.40
2022-10-08T10:49:34.976Z,3.58
2022-10-08T10:52:50.994Z,3.60
2022-10-08T10:56:03.572Z,3.35
2022-10-08T10:58:54.386Z,3.43
2022-10-08T11:01:46.677Z,7.75
2022-10-08T11:04:47.496Z,3.40
2022-10-08T11:07:41.234Z,3.65
2022-10-08T11:10:20.926Z,3.40
2022-10-08T11:13:11.573Z,3.50
2022-10-08T11:15:51.941Z,3.20
2022-10-08T11:18:46.206Z,3.47
2022-10-08T11:21:46.056Z,3.10
2022-10-08T11:24:42.223Z,3.63
2022-10-08T11:28:06.113Z,2.80
2022-10-08T11:31:09.729Z,3.33
2022-10-08T11:33:43.130Z,2.85
2022-10-08T11:36:32.683Z,3.70
2022-10-08T11:39:22.220Z,3.47
2022-10-08T11:42:25.819Z,3.70
2022-10-08T11:45:44.627Z,3.20
2022-10-08T11:48:35.752Z,3.92
2022-10-08T11:51:20.631Z,3.45
2022-10-08T11:54:18.381Z,3.55
2022-10-08T11:57:09.610Z,3.77
2022-10-08T12:00:22.882Z,3.55
2022-10-08T12:02:56.339Z,4.03
2022-10-08T12:05:34.783Z,3.70
2022-10-08T12:08:07.063Z,3.95
2022-10-08T12:10:40.487Z,3.63
2022-10-08T12:13:17.455Z,4.07
2022-10-08T12:15:53.020Z,3.58
2022-10-08T12:18:26.508Z,3.53
2022-10-08T12:21:17.215Z,3.70
2022-10-08T12:23:49.597Z,3.80
2022-10-08T12:26:22.165Z,4.43
2022-10-08T12:28:54.502Z,4.22
2022-10-08T12:31:40.267Z,4.07
2022-10-08T12:34:18.897Z,4.07
2022-10-08T12:37:16.683Z,4.30
2022-10-08T12:39:50.280Z,4.03
2022-10-08T12:42:37.122Z,3.90
2022-10-08T12:45:26.214Z,3.95
2022-10-08T12:48:31.914Z,4.18
2022-10-08T12:51:04.858Z,4.13
2022-10-08T12:53:37.022Z,4.10
2022-10-08T12:56:18.855Z,4.30
2022-10-08T12:58:51.390Z,4.60
2022-10-08T13:01:25.481Z,4.10
2022-10-08T13:04:21.794Z,3.57
2022-10-08T13:06:55.672Z,3.90
2022-10-08T13:09:35.498Z,3.95
2022-10-08T13:12:10.584Z,3.92
2022-10-08T13:14:43.290Z,4.38
2022-10-08T13:17:34.032Z,4.00
2022-10-08T13:20:18.517Z,3.72
2022-10-08T13:22:51.126Z,3.63
2022-10-08T13:25:39.844Z,4.60
2022-10-08T13:28:13.032Z,3.67
2022-10-08T13:30:47.186Z,3.67
2022-10-08T13:33:22.584Z,3.65
2022-10-08T13:35:58.798Z,4.00
2022-10-08T13:38:34.020Z,3.40
2022-10-08T13:41:07.673Z,3.20
2022-10-08T13:43:40.020Z,3.60
2022-10-08T13:46:13.124Z,3.60
2022-10-08T13:48:45.624Z,3.38
2022-10-08T13:51:18.697Z,3.47
2022-10-08T13:53:56.238Z,3.63
2022-10-08T13:56:30.027Z,3.33
2022-10-08T13:59:02.373Z,3.08
2022-10-08T14:01:35.409Z,3.40
2022-10-08T14:04:07.461Z,3.42
2022-10-08T14:06:41.942Z,3.00
2022-10-08T14:09:19.602Z,3.17
2022-10-08T14:11:56.641Z,3.13
2022-10-08T14:14:29.629Z,3.38
2022-10-08T14:17:01.979Z,3.10
2022-10-08T14:19:34.926Z,3.53
2022-10-08T14:22:06.831Z,3.03
2022-10-08T14:24:40.260Z,3.63
2022-10-08T14:27:12.260Z,3.10
2022-10-08T14:29:45.312Z,3.05
2022-10-08T14:32:17.243Z,3.47
2022-10-08T14:34:49.928Z,3.40
2022-10-08T14:37:22.097Z,3.05
2022-10-08T14:39:54.728Z,3.22
2022-10-08T14:42:27.056Z,3.45
2022-10-08T14:45:00.271Z,4.20
2022-10-08T14:47:32.524Z,3.07
2022-10-08T14:50:05.951Z,3.38
2022-10-08T14:52:41.858Z,2.95
2022-10-08T14:55:17.035Z,6.15
2022-10-08T14:57:49.013Z,5.55
2022-10-08T15:00:21.974Z,3.40
2022-10-08T15:02:54.333Z,3.47
2022-10-08T15:05:27.473Z,2.95
2022-10-08T15:07:59.375Z,2.80
2022-10-08T15:10:32.337Z,3.45
2022-10-08T15:13:04.693Z,3.00
2022-10-08T15:15:45.233Z,3.20
2022-10-08T15:18:17.188Z,3.13
2022-10-08T15:20:58.096Z,2.72
2022-10-08T15:23:30.459Z,3.20
2022-10-08T15:26:10.786Z,2.60
2022-10-08T15:28:45.942Z,2.67
2022-10-08T15:31:20.258Z,7.63
2022-10-08T15:33:56.419Z,3.17
2022-10-08T15:36:36.099Z,3.35
2022-10-08T15:39:15.870Z,3.10
2022-10-08T15:41:51.308Z,9.52
2022-10-08T15:44:26.048Z,3.13
2022-10-08T15:47:07.056Z,2.90
2022-10-08T15:49:42.453Z,3.40
2022-10-08T15:52:19.350Z,3.50
2022-10-08T15:54:51.983Z,3.40
2022-10-08T15:57:24.249Z,3.40
2022-10-08T15:59:58.611Z,3.47
2022-10-08T16:02:30.923Z,3.78
2022-10-08T16:05:04.105Z,3.60
2022-10-08T16:07:36.413Z,3.63
2022-10-08T16:10:09.455Z,3.15
2022-10-08T16:12:41.715Z,3.42
2022-10-08T16:15:14.737Z,3.13
2022-10-08T16:17:47.244Z,3.60
2022-10-08T16:20:20.222Z,3.80
2022-10-08T16:22:52.532Z,3.22
2022-10-08T16:25:25.126Z,3.08
2022-10-08T16:27:57.034Z,3.42
2022-10-08T16:30:29.975Z,3.57
2022-10-08T16:33:02.457Z,3.40
2022-10-08T16:35:36.416Z,3.72
2022-10-08T16:38:08.749Z,2.90
2022-10-08T16:40:41.304Z,3.47
2022-10-08T16:43:14.002Z,3.20
2022-10-08T16:45:46.975Z,3.30
2022-10-08T16:48:19.351Z,3.30
2022-10-08T16:50:52.284Z,4.55
2022-10-08T16:53:24.168Z,3.20
2022-10-08T16:55:57.163Z,3.10
2022-10-08T16:58:29.073Z,4.15
2022-10-08T17:01:06.656Z,3.80
2022-10-08T17:03:38.988Z,3.50
2022-10-08T17:06:11.920Z,3.10
2022-10-08T17:08:44.376Z,2.93
2022-10-08T17:11:18.058Z,3.53
2022-10-08T17:13:54.420Z,3.35
2022-10-08T17:16:29.094Z,3.38
2022-10-08T17:19:02.506Z,3.58
2022-10-08T17:21:34.993Z,2.93
2022-10-08T17:24:08.705Z,3.00
2022-10-08T17:26:41.980Z,4.10
2022-10-08T17:29:15.657Z,3.67
2022-10-08T17:31:47.648Z,4.63
2022-10-08T17:34:20.663Z,3.33
2022-10-08T17:36:52.551Z,4.22
2022-10-08T17:39:26.192Z,4.78
2022-10-08T17:41:58.055Z,4.57
2022-10-08T17:44:30.618Z,3.65
2022-10-08T17:47:02.501Z,3.77
2022-10-08T17:49:37.140Z,3.80
2022-10-08T17:52:09.068Z,4.72
2022-10-08T17:54:42.171Z,4.18
2022-10-08T17:57:14.460Z,4.53
2022-10-08T17:59:46.789Z,5.03
2022-10-08T18:02:20.746Z,4.65
2022-10-08T18:04:52.624Z,5.13
2022-10-08T18:07:25.339Z,5.10
2022-10-08T18:09:58.014Z,4.90
2022-10-08T18:12:31.119Z,4.20
2022-10-08T18:15:05.362Z,3.90
2022-10-08T18:17:38.286Z,4.40
2022-10-08T18:20:10.750Z,4.45
2022-10-08T18:22:43.125Z,5.10
2022-10-08T18:25:15.464Z,5.40
2022-10-08T18:27:48.751Z,4.82
2022-10-08T18:30:21.707Z,5.95
2022-10-08T18:32:53.572Z,5.25
2022-10-08T18:35:26.378Z,5.20
2022-10-08T18:37:58.818Z,5.20
2022-10-08T18:43:22.895Z,5.13
2022-10-08T18:45:56.560Z,5.30
2022-10-08T18:48:35.004Z,5.20
2022-10-08T18:51:22.820Z,5.53
2022-10-08T18:53:56.707Z,5.68
2022-10-08T18:56:34.736Z,6.80
2022-10-08T18:59:13.267Z,6.30
2022-10-08T19:01:47.934Z,6.35
2022-10-08T19:04:21.789Z,5.33
2022-10-08T19:06:54.543Z,5.10
2022-10-08T19:09:26.475Z,5.68
2022-10-08T19:12:01.456Z,5.60
2022-10-08T19:14:33.439Z,5.65
2022-10-08T19:17:06.211Z,4.57
2022-10-08T19:19:38.463Z,4.80
2022-10-08T19:25:04.530Z,5.47
2022-10-08T19:27:37.653Z,5.25
2022-10-08T19:30:10.491Z,5.60
2022-10-08T19:32:43.971Z,4.95
2022-10-08T19:35:16.267Z,5.40
2022-10-08T19:37:49.418Z,5.65
2022-10-08T19:40:22.148Z,5.82
2022-10-08T19:42:54.845Z,5.30
2022-10-08T19:45:27.156Z,5.43
2022-10-08T19:47:59.699Z,4.90
2022-10-08T19:50:32.272Z,5.22
2022-10-08T19:53:05.036Z,5.53
2022-10-08T19:55:38.518Z,4.53
2022-10-08T19:58:10.846Z,5.05
2022-10-08T20:00:43.102Z,4.80
2022-10-08T20:03:15.898Z,4.40
2022-10-08T20:05:48.280Z,4.82
2022-10-08T20:08:21.666Z,4.20
2022-10-08T20:10:54.342Z,3.97
2022-10-08T20:13:26.273Z,4.07
2022-10-08T20:16:17.520Z,4.88
2022-10-08T20:18:56.665Z,4.47
2022-10-08T20:21:33.356Z,4.07
2022-10-08T20:24:07.397Z,3.88
2022-10-08T20:26:41.565Z,3.97
2022-10-08T20:29:18.840Z,4.28
2022-10-08T20:31:54.856Z,4.00
2022-10-08T20:37:21.736Z,4.10
2022-10-08T20:39:53.999Z,4.10
2022-10-08T20:42:28.746Z,5.13
2022-10-08T20:45:00.639Z,4.45
2022-10-08T20:47:33.135Z,4.20
2022-10-08T20:50:05.704Z,4.90
2022-10-08T20:52:38.364Z,4.75
2022-10-08T20:55:10.697Z,4.72
2022-10-08T20:57:43.313Z,5.10
2022-10-08T21:00:15.467Z,4.67
2022-10-08T21:02:48.629Z,4.50
2022-10-08T21:05:21.163Z,4.50
2022-10-08T21:07:54.135Z,4.53
2022-10-08T21:10:26.087Z,4.28
2022-10-08T21:12:58.559Z,4.73
2022-10-08T21:15:30.716Z,4.28
2022-10-08T21:18:03.750Z,4.47
2022-10-08T21:20:36.878Z,4.97
2022-10-08T21:23:09.441Z,4.50
2022-10-08T21:25:41.336Z,4.13
2022-10-08T21:28:14.289Z,5.13
2022-10-08T21:30:46.218Z,4.70
2022-10-08T21:33:18.759Z,4.28
2022-10-08T21:35:50.682Z,4.63
2022-10-08T21:38:24.018Z,4.30
2022-10-08T21:41:12.331Z,4.47
2022-10-08T21:43:47.297Z,4.68
2022-10-08T21:46:22.543Z,3.97
2022-10-08T21:48:58.405Z,4.72
2022-10-08T21:51:31.751Z,3.50
2022-10-08T21:54:07.038Z,4.07
2022-10-08T21:56:40.608Z,3.90
2022-10-08T21:59:15.922Z,4.75
2022-10-08T22:01:50.346Z,4.00
2022-10-08T22:04:25.410Z,3.70
2022-10-08T22:06:58.313Z,3.53
2022-10-08T22:09:34.950Z,3.63
2022-10-08T22:12:06.905Z,3.92
2022-10-08T22:14:39.906Z,3.72
2022-10-08T22:17:12.051Z,3.30
2022-10-08T22:19:44.577Z,3.92
2022-10-08T22:22:16.923Z,4.40
2022-10-08T22:24:49.486Z,3.70
2022-10-08T22:27:21.808Z,3.72
2022-10-08T22:29:54.935Z,3.60
2022-10-08T22:32:26.806Z,3.78
2022-10-08T22:34:59.480Z,4.13
2022-10-08T22:37:31.796Z,3.60
2022-10-08T22:40:04.382Z,3.63
2022-10-08T22:42:36.281Z,3.57
2022-10-08T22:45:09.555Z,3.78
2022-10-08T22:47:41.827Z,3.70
2022-10-08T22:50:14.612Z,3.47
2022-10-08T22:52:49.145Z,3.83
2022-10-08T22:55:22.065Z,3.00
2022-10-08T22:57:54.407Z,3.60
2022-10-08T23:00:27.309Z,3.28
2022-10-08T23:02:59.190Z,3.50
2022-10-08T23:05:31.762Z,3.92
2022-10-08T23:08:04.072Z,3.20
2022-10-08T23:10:36.639Z,3.67
2022-10-08T23:13:08.554Z,3.80
2022-10-08T23:15:41.074Z,3.88
2022-10-08T23:18:13.413Z,3.40
2022-10-08T23:20:45.922Z,3.03
2022-10-08T23:23:17.854Z,3.25
2022-10-08T23:25:59.078Z,3.70
2022-10-08T23:28:32.835Z,3.78
2022-10-08T23:31:12.931Z,3.00
2022-10-08T23:33:47.610Z,3.20
2022-10-08T23:36:30.560Z,3.13
2022-10-08T23:39:03.779Z,3.47
2022-10-08T23:41:37.538Z,2.95
2022-10-08T23:44:11.579Z,2.80
2022-10-08T23:46:44.988Z,2.80
2022-10-08T23:49:17.470Z,2.90
2022-10-08T23:51:50.011Z,2.72
2022-10-08T23:54:22.162Z,3.15
2022-10-08T23:56:54.720Z,2.95
2022-10-08T23:59:26.652Z,2.73
